Aliq, Pennsylvania
Current Conditions -  °F | °C
As of 4:51 PM on Monday 20 Oct 2014 (Local Time) from KPIT Reporting Station
Overcast Overcast  
Wind Chill: 57°   Ceiling: 9000
Heat Index: 57°   Visibility: 10mi
Dew Point: 41°   Wind: 9mph
Humidity: 55%   Direction: 210°SSW
Pressure: 29.88"   Gusts: 17mph
Location:  40.5921°N, 80.3191°W
Report Text: KPIT 202051Z 21008G15KT 10SM FEW038 BKN090 OVC220 14/05 A2988 RMK AO2 SLP128 T01390050 56008
Loading
Personal Weather Stations






























Interactive Weather Map
Tropical Storm Tracking
New forecast layout! Learn more

10-Day Weather Forecast

Advertisements
Track Severe Weather on mobile